Terminal Aerodrome Forecast
Issued by NWS Central Illinois

Home | Current Version | Previous Version | Text Only | Print | Product List | Glossary On
Versions: 1 2 3 4 5 6 7 8 9 10 11 12 13 14 15 16 17 18 19 20 21 22
602
FTUS43 KILX 262328
TAFSPI
TAF
KSPI 262328Z 2700/2724 VRB04KT P6SM SKC
      TEMPO 2710/2713 4SM BR
     FM271600 VRB05KT P6SM FEW050=

USA.gov is the U.S. government's official web portal to all federal, state and local government web resources and services.